Time;durP1;ratioP1;P1;durP2;ratioP2;P2;SDS_P1;SDS_P2;PMS_P1;PMS_P2;Temp;Humidity;BMP_temperature;BMP_pressure;BME280_temperature;BME280_humidity;BME280_pressure;Samples;Min_cycle;Max_cycle;Signal;HPM_P1;HPM_P2
2021/03/14 00:01:23;;;;;;;;;;;;;;;9.65;52.60;99538.53;4995129;28;7225;-74
2021/03/14 00:03:48;;;;;;;;;;;;;;;9.61;52.86;99548.81;4995903;28;6786;-75
2021/03/14 00:06:14;;;;;;;;;;;;;;;9.59;52.92;99554.00;4980050;28;7114;-74
2021/03/14 00:08:40;;;;;;;;;;;;;;;9.58;52.73;99559.16;4995742;28;7137;-75
2021/03/14 00:11:06;;;;;;;;;;;;;;;9.56;52.94;99571.25;4999998;28;6894;-74
2021/03/14 00:13:34;;;;;;;;;;;;;;;9.53;52.47;99566.06;4998849;28;6796;-74
2021/03/14 00:16:00;;;;;;;;;;;;;;;9.51;52.88;99570.34;4999793;28;7242;-74
2021/03/14 00:18:36;;;;;;;;;;;;;;;9.47;53.14;99553.91;5014928;28;7175;-73
2021/03/14 00:21:02;;;;;;;;;;;;;;;9.45;53.10;99566.88;5008386;28;7075;-74
2021/03/14 00:23:27;;;;;;;;;;;;;;;9.42;53.30;99578.94;4999710;28;7476;-74
2021/03/14 00:25:56;;;;;;;;;;;;;;;9.40;52.93;99573.69;5011125;28;6788;-75
2021/03/14 00:28:22;;;;;;;;;;;;;;;9.38;53.54;99580.59;4998484;28;7762;-74
2021/03/14 00:30:48;;;;;;;;;;;;;;;9.36;53.09;99581.44;4980710;28;6860;-74
2021/03/14 00:33:14;;;;;;;;;;;;;;;9.33;53.29;99581.41;5001374;28;6852;-75
2021/03/14 00:35:39;;;;;;;;;;;;;;;9.30;53.16;99584.84;5000419;28;7297;-74
2021/03/14 00:38:05;;;;;;;;;;;;;;;9.29;53.27;99584.84;5001443;28;6805;-74
2021/03/14 00:40:30;;;;;;;;;;;;;;;9.27;53.23;99587.41;4999547;28;7179;-74
2021/03/14 00:42:57;;;;;;;;;;;;;;;9.25;53.72;99594.31;5017465;28;7253;-74
2021/03/14 00:45:22;;;;;;;;;;;;;;;9.22;53.59;99596.88;4994269;28;7064;-74
2021/03/14 00:47:48;;;;;;;;;;;;;;;9.22;53.80;99607.25;5001175;28;7160;-75
2021/03/14 00:50:14;;;;;;;;;;;;;;;9.19;53.75;99607.19;5001272;28;6795;-75
2021/03/14 00:52:40;;;;;;;;;;;;;;;9.17;53.89;99610.59;5001576;28;8433;-75
2021/03/14 00:55:05;;;;;;;;;;;;;;;9.14;53.62;99612.31;4998456;28;7071;-74
2021/03/14 00:57:31;;;;;;;;;;;;;;;9.12;53.59;99623.50;5015858;28;6977;-74
2021/03/14 00:59:57;;;;;;;;;;;;;;;9.10;54.12;99631.28;5000823;28;7182;-74
2021/03/14 01:02:22;;;;;;;;;;;;;;;9.10;53.90;99631.28;4999821;28;7517;-74
2021/03/14 01:04:48;;;;;;;;;;;;;;;9.06;53.72;99636.41;4998755;28;6787;-75
2021/03/14 01:07:13;;;;;;;;;;;;;;;9.05;54.26;99642.44;4999590;28;7970;-74
2021/03/14 01:09:39;;;;;;;;;;;;;;;9.04;54.07;99643.28;4983592;28;7219;-75
2021/03/14 01:12:05;;;;;;;;;;;;;;;9.01;53.82;99644.13;4998122;28;7095;-74
2021/03/14 01:14:30;;;;;;;;;;;;;;;9.01;53.87;99638.03;4999389;28;7776;-75
2021/03/14 01:16:56;;;;;;;;;;;;;;;8.99;54.04;99655.28;5013773;28;7182;-73
2021/03/14 01:19:21;;;;;;;;;;;;;;;8.98;54.00;99656.16;4998692;28;6802;-75
2021/03/14 01:21:47;;;;;;;;;;;;;;;8.94;54.26;99655.25;5001510;28;6930;-75
2021/03/14 01:24:12;;;;;;;;;;;;;;;8.93;54.20;99653.50;5005526;28;7337;-74
2021/03/14 01:26:38;;;;;;;;;;;;;;;8.93;54.23;99665.59;5000288;28;7960;-74
2021/03/14 01:29:03;;;;;;;;;;;;;;;8.91;54.62;99659.53;4999090;28;7167;-75
2021/03/14 01:31:29;;;;;;;;;;;;;;;8.89;54.37;99659.50;5000148;28;7142;-74
2021/03/14 01:33:54;;;;;;;;;;;;;;;8.88;54.25;99667.25;5010275;28;8384;-74
2021/03/14 01:36:20;;;;;;;;;;;;;;;8.87;54.44;99661.22;5002009;28;7727;-74
2021/03/14 01:38:45;;;;;;;;;;;;;;;8.85;54.57;99657.72;5001402;28;8495;-75
2021/03/14 01:41:11;;;;;;;;;;;;;;;8.83;54.71;99667.19;4999290;28;6804;-74
2021/03/14 01:43:37;;;;;;;;;;;;;;;8.81;54.63;99669.78;5001368;28;7249;-74
2021/03/14 01:46:04;;;;;;;;;;;;;;;8.79;54.68;99665.41;5000311;28;7265;-75
2021/03/14 01:48:30;;;;;;;;;;;;;;;8.78;55.09;99674.88;5000009;28;6807;-74
2021/03/14 01:50:55;;;;;;;;;;;;;;;8.79;54.40;99673.16;4997060;28;6851;-75
2021/03/14 01:53:21;;;;;;;;;;;;;;;8.77;55.04;99677.44;4981903;28;7293;-75
2021/03/14 01:55:47;;;;;;;;;;;;;;;8.77;54.60;99678.31;4998557;28;8521;-75
2021/03/14 01:58:13;;;;;;;;;;;;;;;8.74;54.65;99677.41;4981836;28;11286;-74
2021/03/14 02:00:39;;;;;;;;;;;;;;;8.73;55.13;99681.72;4979821;28;6816;-75
2021/03/14 02:03:04;;;;;;;;;;;;;;;8.73;54.74;99683.44;4982082;28;8013;-74
2021/03/14 02:05:30;;;;;;;;;;;;;;;8.72;54.99;99692.94;4983693;28;8512;-74
2021/03/14 02:07:55;;;;;;;;;;;;;;;8.70;55.09;99689.44;4997959;28;7810;-74
2021/03/14 02:10:26;;;;;;;;;;;;;;;8.69;55.02;99695.47;4982977;28;8218;-74
2021/03/14 02:12:59;;;;;;;;;;;;;;;8.69;54.84;99711.00;4992376;28;6880;-73
2021/03/14 02:15:25;;;;;;;;;;;;;;;8.67;55.13;99702.34;5011724;28;7409;-74
2021/03/14 02:17:51;;;;;;;;;;;;;;;8.67;55.38;99709.25;4997926;28;7403;-75
2021/03/14 02:20:18;;;;;;;;;;;;;;;8.65;55.20;99711.81;4965999;28;8509;-74
2021/03/14 02:22:48;;;;;;;;;;;;;;;8.65;55.02;99711.81;4982815;28;11207;-74
2021/03/14 02:25:27;;;;;;;;;;;;;;;8.65;55.14;99708.38;4981118;28;11105;-74
2021/03/14 02:27:52;;;;;;;;;;;;;;;8.62;55.33;99716.97;4981726;28;11506;-74
2021/03/14 02:30:18;;;;;;;;;;;;;;;8.62;55.23;99716.09;5000205;28;6822;-75
2021/03/14 02:32:43;;;;;;;;;;;;;;;8.61;55.23;99716.91;4982001;28;11167;-74
2021/03/14 02:35:09;;;;;;;;;;;;;;;8.59;55.35;99722.06;4997752;28;6791;-74
2021/03/14 02:37:35;;;;;;;;;;;;;;;8.58;55.39;99728.09;4999322;28;7333;-74
2021/03/14 02:40:01;;;;;;;;;;;;;;;8.58;55.25;99729.81;4981828;28;7886;-74
2021/03/14 02:42:27;;;;;;;;;;;;;;;8.57;55.32;99739.28;4999727;28;7047;-74
2021/03/14 02:44:53;;;;;;;;;;;;;;;8.56;55.47;99750.50;4978822;28;7330;-75
2021/03/14 02:47:23;;;;;;;;;;;;;;;8.53;55.79;99740.97;4966023;28;8513;-74
2021/03/14 02:49:49;;;;;;;;;;;;;;;8.54;55.58;99749.59;4998279;28;8783;-75
2021/03/14 02:52:15;;;;;;;;;;;;;;;8.52;55.69;99741.81;4982891;28;6816;-75
2021/03/14 02:54:40;;;;;;;;;;;;;;;8.52;55.74;99753.88;5000240;28;7316;-75
2021/03/14 02:57:06;;;;;;;;;;;;;;;8.50;55.53;99759.03;4996636;28;8103;-75
2021/03/14 02:59:32;;;;;;;;;;;;;;;8.49;55.64;99765.06;4993619;28;7665;-74
2021/03/14 03:01:58;;;;;;;;;;;;;;;8.49;55.91;99759.00;4989144;28;7241;-74
2021/03/14 03:04:24;;;;;;;;;;;;;;;8.48;56.17;99772.78;4998301;28;7732;-75
2021/03/14 03:06:50;;;;;;;;;;;;;;;8.47;55.96;99771.06;4980000;28;7692;-75
2021/03/14 03:09:15;;;;;;;;;;;;;;;8.46;55.82;99774.50;4996970;28;7237;-75
2021/03/14 03:11:41;;;;;;;;;;;;;;;8.45;55.68;99777.94;4995006;28;8724;-75
2021/03/14 03:14:09;;;;;;;;;;;;;;;8.44;56.04;99786.53;4980924;28;7215;-75
2021/03/14 03:16:34;;;;;;;;;;;;;;;8.43;55.94;99792.56;4979300;28;8580;-75
2021/03/14 03:19:00;;;;;;;;;;;;;;;8.42;56.21;99793.41;4979658;28;6963;-74
2021/03/14 03:21:26;;;;;;;;;;;;;;;8.40;56.18;99790.75;5012903;28;6791;-75
2021/03/14 03:23:51;;;;;;;;;;;;;;;8.40;55.82;99802.84;4980108;28;7261;-75
2021/03/14 03:26:17;;;;;;;;;;;;;;;8.38;56.05;99805.41;4998264;28;6840;-74
2021/03/14 03:28:43;;;;;;;;;;;;;;;8.37;56.20;99805.38;4999018;28;7066;-75
2021/03/14 03:31:08;;;;;;;;;;;;;;;8.37;55.96;99810.53;4999805;28;6813;-74
2021/03/14 03:33:34;;;;;;;;;;;;;;;8.34;55.96;99807.91;4999304;28;7219;-75
2021/03/14 03:35:59;;;;;;;;;;;;;;;8.34;56.25;99818.25;4996625;28;7218;-75
2021/03/14 03:38:25;;;;;;;;;;;;;;;8.33;56.37;99824.25;4998645;28;6931;-75
2021/03/14 03:40:50;;;;;;;;;;;;;;;8.31;56.20;99823.34;4997236;28;8390;-75
2021/03/14 03:43:24;;;;;;;;;;;;;;;8.31;56.35;99828.53;5014540;28;8544;-75
2021/03/14 03:45:50;;;;;;;;;;;;;;;8.30;56.34;99834.53;4998418;28;13145;-74
2021/03/14 03:48:21;;;;;;;;;;;;;;;8.28;56.52;99833.66;4997808;28;7092;-75
2021/03/14 03:50:49;;;;;;;;;;;;;;;8.26;56.65;99835.34;4979306;28;12818;-75
2021/03/14 03:53:14;;;;;;;;;;;;;;;8.26;56.51;99848.28;4997833;28;11019;-75
2021/03/14 03:55:40;;;;;;;;;;;;;;;8.23;56.52;99847.38;4998931;28;7207;-74
2021/03/14 03:58:05;;;;;;;;;;;;;;;8.23;56.27;99849.97;4998674;28;6808;-75
2021/03/14 04:00:31;;;;;;;;;;;;;;;8.22;56.61;99853.41;4997900;28;7419;-75
2021/03/14 04:02:59;;;;;;;;;;;;;;;8.19;56.43;99855.03;4979412;28;7829;-75
2021/03/14 04:05:25;;;;;;;;;;;;;;;8.16;56.65;99858.44;4980970;28;9752;-74
2021/03/14 04:07:50;;;;;;;;;;;;;;;8.18;56.28;99863.63;4997682;28;7254;-75
2021/03/14 04:10:17;;;;;;;;;;;;;;;8.17;56.77;99862.75;5012113;28;6787;-75
2021/03/14 04:12:43;;;;;;;;;;;;;;;8.15;56.62;99869.63;4995516;28;8100;-75
2021/03/14 04:15:10;;;;;;;;;;;;;;;8.15;56.70;99884.25;5012846;28;6979;-75
2021/03/14 04:17:37;;;;;;;;;;;;;;;8.13;56.99;99883.38;5013931;28;7178;-74
2021/03/14 04:20:03;;;;;;;;;;;;;;;8.11;56.97;99873.00;4997557;28;7205;-74
2021/03/14 04:22:28;;;;;;;;;;;;;;;8.11;56.58;99885.94;5015727;28;7589;-75
2021/03/14 04:24:54;;;;;;;;;;;;;;;8.10;56.42;99893.66;4999139;28;6851;-75
2021/03/14 04:27:19;;;;;;;;;;;;;;;8.10;57.09;99886.78;4999867;28;7762;-75
2021/03/14 04:29:45;;;;;;;;;;;;;;;8.09;56.75;99897.09;4999935;28;7174;-74
2021/03/14 04:32:11;;;;;;;;;;;;;;;8.08;56.74;99903.97;4983426;28;6888;-74
2021/03/14 04:34:36;;;;;;;;;;;;;;;8.08;57.17;99916.03;4989524;28;7501;-75
2021/03/14 04:37:02;;;;;;;;;;;;;;;8.06;56.92;99903.06;4988612;28;6795;-75
2021/03/14 04:39:27;;;;;;;;;;;;;;;8.06;56.85;99916.00;4971971;28;7440;-75
2021/03/14 04:41:53;;;;;;;;;;;;;;;8.05;56.81;99915.97;4998717;28;7318;-75
2021/03/14 04:44:19;;;;;;;;;;;;;;;8.04;56.70;99922.88;5010659;28;7679;-74
2021/03/14 04:46:44;;;;;;;;;;;;;;;8.04;57.24;99927.16;4998729;28;11258;-74
2021/03/14 04:49:10;;;;;;;;;;;;;;;8.03;57.20;99922.84;5010056;28;6987;-75
2021/03/14 04:51:36;;;;;;;;;;;;;;;8.03;56.84;99928.88;4995375;28;6953;-74
2021/03/14 04:54:02;;;;;;;;;;;;;;;8.02;56.91;99928.84;4995704;28;6808;-75
2021/03/14 04:56:27;;;;;;;;;;;;;;;8.02;56.98;99934.88;4999721;28;7188;-74
2021/03/14 04:58:53;;;;;;;;;;;;;;;8.01;56.88;99935.72;4996942;28;7080;-75
2021/03/14 05:01:19;;;;;;;;;;;;;;;8.02;56.93;99954.69;4998610;28;8753;-75
2021/03/14 05:03:46;;;;;;;;;;;;;;;8.01;57.06;99946.06;4994100;28;13764;-75
2021/03/14 05:06:13;;;;;;;;;;;;;;;8.00;56.83;99946.88;4997661;28;6876;-74
2021/03/14 05:08:39;;;;;;;;;;;;;;;8.00;56.88;99953.78;5000859;28;6925;-75
2021/03/14 05:11:05;;;;;;;;;;;;;;;7.99;57.15;99960.66;5002785;28;6792;-73
2021/03/14 05:13:30;;;;;;;;;;;;;;;7.99;57.12;99965.81;4983416;28;6784;-75
2021/03/14 05:15:56;;;;;;;;;;;;;;;7.98;57.07;99971.84;5002791;28;8152;-75
2021/03/14 05:18:21;;;;;;;;;;;;;;;7.99;57.31;99971.00;5000108;28;7094;-74
2021/03/14 05:20:47;;;;;;;;;;;;;;;7.98;56.83;99982.19;4967856;28;8521;-75
2021/03/14 05:23:13;;;;;;;;;;;;;;;7.95;57.26;99989.88;4997303;28;7244;-74
2021/03/14 05:25:39;;;;;;;;;;;;;;;7.94;57.16;99976.06;5001950;28;7321;-74
2021/03/14 05:28:04;;;;;;;;;;;;;;;7.96;56.83;99976.09;5001932;28;6861;-74
2021/03/14 05:30:31;;;;;;;;;;;;;;;7.96;57.13;99991.63;4985013;28;7500;-75
2021/03/14 05:32:57;;;;;;;;;;;;;;;7.93;57.09;99989.84;5008017;28;8516;-74
2021/03/14 05:35:25;;;;;;;;;;;;;;;7.95;57.21;99997.63;4980556;28;6853;-74
2021/03/14 05:37:50;;;;;;;;;;;;;;;7.92;57.00;100002.75;4997753;28;8834;-75
2021/03/14 05:40:17;;;;;;;;;;;;;;;7.93;57.09;100010.53;4997609;28;7183;-75
2021/03/14 05:42:43;;;;;;;;;;;;;;;7.93;56.73;100007.06;4997632;28;7826;-74
2021/03/14 05:45:09;;;;;;;;;;;;;;;7.94;57.24;100017.44;5013079;28;6807;-75
2021/03/14 05:47:36;;;;;;;;;;;;;;;7.94;57.38;100021.75;4997087;28;6825;-74
2021/03/14 05:50:02;;;;;;;;;;;;;;;7.96;56.88;100024.34;4999335;28;6883;-74
2021/03/14 05:52:28;;;;;;;;;;;;;;;7.96;56.78;100027.81;5013574;28;6812;-75
2021/03/14 05:54:54;;;;;;;;;;;;;;;7.97;56.98;100024.38;4995931;28;6805;-74
2021/03/14 05:57:19;;;;;;;;;;;;;;;7.97;56.71;100028.69;5014079;28;7316;-75
2021/03/14 05:59:45;;;;;;;;;;;;;;;7.98;57.03;100030.44;4996748;28;7326;-74
2021/03/14 06:02:11;;;;;;;;;;;;;;;7.98;56.87;100033.88;5002725;28;7345;-75
2021/03/14 06:04:37;;;;;;;;;;;;;;;7.99;57.08;100030.47;4978259;28;6859;-75
2021/03/14 06:07:02;;;;;;;;;;;;;;;8.00;57.09;100034.78;4999580;28;7159;-74
2021/03/14 06:09:28;;;;;;;;;;;;;;;8.02;56.63;100042.63;5015766;28;7258;-74
2021/03/14 06:11:53;;;;;;;;;;;;;;;8.04;56.75;100044.38;4981186;28;6814;-75
2021/03/14 06:14:19;;;;;;;;;;;;;;;8.03;56.72;100053.00;5001381;28;7261;-74
2021/03/14 06:16:44;;;;;;;;;;;;;;;8.05;56.61;100051.31;4999440;28;7890;-75
2021/03/14 06:19:10;;;;;;;;;;;;;;;8.09;56.93;100055.69;5000499;28;7818;-75
2021/03/14 06:21:35;;;;;;;;;;;;;;;8.13;56.79;100062.69;5000033;28;8910;-75
2021/03/14 06:24:02;;;;;;;;;;;;;;;8.17;56.58;100061.03;5001156;28;7214;-75
2021/03/14 06:26:31;;;;;;;;;;;;;;;8.21;56.68;100066.31;4983669;28;8559;-75
2021/03/14 06:28:57;;;;;;;;;;;;;;;8.24;56.66;100070.69;4998678;28;7087;-75
2021/03/14 06:31:23;;;;;;;;;;;;;;;8.32;56.08;100063.09;4999011;28;6821;-74
2021/03/14 06:33:49;;;;;;;;;;;;;;;8.36;56.02;100070.09;4996272;28;7675;-75
2021/03/14 06:36:15;;;;;;;;;;;;;;;8.40;56.03;100077.06;4999876;28;6951;-75
2021/03/14 06:38:41;;;;;;;;;;;;;;;8.39;56.14;100083.97;4997617;28;6818;-75
2021/03/14 06:41:06;;;;;;;;;;;;;;;8.42;56.09;100091.81;5013061;28;6791;-75
2021/03/14 06:43:33;;;;;;;;;;;;;;;8.43;56.37;100092.69;4999789;28;6823;-74
2021/03/14 06:45:59;;;;;;;;;;;;;;;8.45;56.58;100096.19;5012188;28;7103;-76
2021/03/14 06:48:27;;;;;;;;;;;;;;;8.47;56.06;100097.06;5011137;28;7305;-75
2021/03/14 06:50:53;;;;;;;;;;;;;;;8.53;56.07;100097.19;4995773;28;7886;-74
2021/03/14 06:53:22;;;;;;;;;;;;;;;8.52;55.85;100101.50;5000660;28;7860;-75
2021/03/14 06:55:50;;;;;;;;;;;;;;;8.56;56.24;100104.16;5012994;28;11363;-74
2021/03/14 06:58:19;;;;;;;;;;;;;;;8.58;55.63;100115.41;4995451;28;7510;-74
2021/03/14 07:01:07;;;;;;;;;;;;;;;8.58;56.25;100124.03;4996070;28;7342;-74
2021/03/14 07:03:33;;;;;;;;;;;;;;;8.62;55.90;100131.06;4995706;28;11237;-75
2021/03/14 07:06:20;;;;;;;;;;;;;;;8.68;55.46;100135.47;4996199;28;6980;-75
2021/03/14 07:08:58;;;;;;;;;;;;;;;8.74;55.73;100140.78;4992606;28;7362;-77
2021/03/14 07:11:39;;;;;;;;;;;;;;;8.78;55.84;100148.63;4983998;28;10911;-76
2021/03/14 07:14:06;;;;;;;;;;;;;;;8.86;55.58;100147.94;4983163;28;7013;-76
2021/03/14 07:16:53;;;;;;;;;;;;;;;8.97;55.15;100160.25;5001586;28;6820;-77
2021/03/14 07:19:22;;;;;;;;;;;;;;;9.09;54.83;100151.84;4972947;28;13023;-77
2021/03/14 07:22:03;;;;;;;;;;;;;;;9.15;54.55;100159.72;5005313;28;7292;-77
2021/03/14 07:24:35;;;;;;;;;;;;;;;9.21;54.81;100170.22;5005506;28;11192;-78
2021/03/14 07:27:05;;;;;;;;;;;;;;;9.25;54.64;100172.03;5004798;28;7529;-77
2021/03/14 07:29:31;;;;;;;;;;;;;;;9.29;54.20;100166.06;4993125;28;7481;-77
2021/03/14 07:31:57;;;;;;;;;;;;;;;9.29;54.55;100173.84;5022809;28;7335;-75
2021/03/14 07:34:22;;;;;;;;;;;;;;;9.34;54.76;100171.31;5008311;28;6799;-77
2021/03/14 07:36:48;;;;;;;;;;;;;;;9.41;54.26;100179.25;5000039;28;7093;-75
2021/03/14 07:39:14;;;;;;;;;;;;;;;9.49;54.05;100186.28;4998417;28;7281;-76
2021/03/14 07:41:40;;;;;;;;;;;;;;;9.57;53.47;100185.56;4995676;28;6986;-75
2021/03/14 07:44:06;;;;;;;;;;;;;;;9.63;53.39;100190.03;5009074;28;7176;-76
2021/03/14 07:46:32;;;;;;;;;;;;;;;9.73;53.42;100192.78;4995499;28;7253;-76
2021/03/14 07:48:59;;;;;;;;;;;;;;;9.80;53.31;100198.94;4997352;28;6779;-75
2021/03/14 07:51:24;;;;;;;;;;;;;;;9.89;53.18;100193.94;4998469;28;7107;-76
2021/03/14 07:53:51;;;;;;;;;;;;;;;9.98;52.88;100194.06;4990465;28;6809;-75
2021/03/14 07:56:16;;;;;;;;;;;;;;;10.03;52.58;100197.63;5010734;28;7340;-75
2021/03/14 07:58:42;;;;;;;;;;;;;;;10.15;52.84;100196.94;4995375;28;6986;-77
2021/03/14 08:01:27;;;;;;;;;;;;;;;10.22;52.27;100203.16;5001693;28;6792;-79
2021/03/14 08:03:53;;;;;;;;;;;;;;;10.28;52.43;100205.84;4982961;28;11211;-78
2021/03/14 08:06:43;;;;;;;;;;;;;;;10.30;52.24;100204.13;5009227;28;11896;-78
2021/03/14 08:09:09;;;;;;;;;;;;;;;10.41;51.73;100205.19;5001785;28;10951;-77
2021/03/14 08:11:34;;;;;;;;;;;;;;;10.54;51.85;100207.09;5000051;28;7237;-77
2021/03/14 08:14:00;;;;;;;;;;;;;;;10.77;50.79;100214.34;4996230;28;8413;-77
2021/03/14 08:16:25;;;;;;;;;;;;;;;10.87;50.67;100209.31;5013558;28;6983;-77
2021/03/14 08:18:52;;;;;;;;;;;;;;;11.09;50.30;100214.78;5014154;28;7198;-77
2021/03/14 08:21:20;;;;;;;;;;;;;;;11.22;50.11;100220.16;5013666;28;6873;-77
2021/03/14 08:23:58;;;;;;;;;;;;;;;11.18;50.47;100222.69;4998460;28;7224;-77
2021/03/14 08:26:27;;;;;;;;;;;;;;;10.95;50.40;100228.44;4981663;28;11430;-76
2021/03/14 08:28:56;;;;;;;;;;;;;;;10.78;50.88;100234.25;5010910;28;11228;-77
2021/03/14 08:31:50;;;;;;;;;;;;;;;10.76;51.12;100244.63;5001654;28;11056;-77
2021/03/14 08:34:19;;;;;;;;;;;;;;;10.78;51.33;100242.94;5014030;28;12605;-76
2021/03/14 08:36:45;;;;;;;;;;;;;;;10.82;50.78;100247.34;4993745;28;7154;-76
2021/03/14 08:39:30;;;;;;;;;;;;;;;10.93;50.92;100245.75;4997864;28;7122;-76
2021/03/14 08:41:58;;;;;;;;;;;;;;;11.00;50.49;100251.88;4999293;28;12946;-76
2021/03/14 08:44:32;;;;;;;;;;;;;;;11.08;50.88;100252.00;5002753;28;6808;-76
2021/03/14 08:46:59;;;;;;;;;;;;;;;11.23;50.30;100257.41;4996298;28;13093;-77
2021/03/14 08:49:25;;;;;;;;;;;;;;;11.28;50.24;100266.13;4992848;28;6951;-75
2021/03/14 08:51:50;;;;;;;;;;;;;;;11.26;50.46;100263.53;5010783;28;7530;-76
2021/03/14 08:54:16;;;;;;;;;;;;;;;11.42;49.59;100272.38;4998123;28;7385;-77
2021/03/14 08:56:41;;;;;;;;;;;;;;;11.43;49.85;100262.84;5000081;28;7226;-78
2021/03/14 08:59:08;;;;;;;;;;;;;;;11.43;49.78;100268.94;4985202;28;6844;-78
2021/03/14 09:01:34;;;;;;;;;;;;;;;11.56;49.80;100268.19;5005784;28;7552;-77
2021/03/14 09:04:13;;;;;;;;;;;;;;;11.57;49.56;100280.34;5006922;28;6802;-78
2021/03/14 09:06:38;;;;;;;;;;;;;;;11.65;49.53;100275.25;5021943;28;8470;-78
2021/03/14 09:09:05;;;;;;;;;;;;;;;11.73;49.03;100275.31;5021173;28;6800;-78
2021/03/14 09:11:40;;;;;;;;;;;;;;;11.79;48.91;100271.09;5021289;28;7663;-77
2021/03/14 09:14:38;;;;;;;;;;;;;;;11.81;48.92;100279.81;4999899;28;6932;-78
2021/03/14 09:17:11;;;;;;;;;;;;;;;11.90;49.28;100273.81;4988912;28;10915;-78
2021/03/14 09:19:49;;;;;;;;;;;;;;;11.94;49.20;100269.50;4980335;28;7267;-78
2021/03/14 09:22:20;;;;;;;;;;;;;;;11.86;49.13;100272.91;4979026;28;7228;-78
2021/03/14 09:24:46;;;;;;;;;;;;;;;11.83;49.52;100270.28;4979662;28;6883;-79
2021/03/14 09:27:17;;;;;;;;;;;;;;;11.81;49.42;100279.81;4985434;28;9032;-79
2021/03/14 09:29:49;;;;;;;;;;;;;;;11.85;49.08;100273.78;4998214;28;7362;-79
2021/03/14 09:32:20;;;;;;;;;;;;;;;11.82;49.15;100283.28;5018969;28;7217;-79
2021/03/14 09:34:45;;;;;;;;;;;;;;;11.86;49.03;100272.03;5004711;28;6991;-79
2021/03/14 09:37:11;;;;;;;;;;;;;;;11.89;49.49;100282.47;4985395;28;8504;-79
2021/03/14 09:39:37;;;;;;;;;;;;;;;11.94;48.86;100295.53;5016430;28;7540;-79
2021/03/14 09:42:03;;;;;;;;;;;;;;;12.01;49.20;100292.13;5000344;28;7008;-76
2021/03/14 09:44:28;;;;;;;;;;;;;;;13.10;59.84;100293.00;5001456;28;7166;-76
2021/03/14 09:46:58;;;;;;;;;;;;;;;12.88;59.30;100303.28;4994989;28;7290;-77
2021/03/14 09:49:23;;;;;;;;;;;;;;;13.07;62.24;100298.19;4999986;28;11016;-78
2021/03/14 09:51:51;;;;;;;;;;;;;;;12.89;60.09;100300.69;5016338;28;7271;-77
2021/03/14 09:54:16;;;;;;;;;;;;;;;12.75;60.00;100310.13;5001071;28;6804;-77
2021/03/14 09:56:42;;;;;;;;;;;;;;;12.74;59.74;100304.06;4993279;28;7063;-80
2021/03/14 09:59:07;;;;;;;;;;;;;;;12.75;59.08;100305.78;5001333;28;7107;-78
2021/03/14 10:01:35;;;;;;;;;;;;;;;12.76;59.16;100310.16;5003279;28;7743;-79
2021/03/14 10:04:01;;;;;;;;;;;;;;;12.81;58.44;100312.78;5010853;28;9385;-77
2021/03/14 10:06:26;;;;;;;;;;;;;;;12.97;58.00;100316.38;5004732;28;7156;-77
2021/03/14 10:08:52;;;;;;;;;;;;;;;13.05;57.35;100325.13;5002674;28;6799;-77
2021/03/14 10:11:17;;;;;;;;;;;;;;;13.16;57.12;100322.56;5018044;28;7190;-77
2021/03/14 10:13:44;;;;;;;;;;;;;;;13.10;56.72;100329.50;5002249;28;6814;-77
2021/03/14 10:16:11;;;;;;;;;;;;;;;13.06;56.14;100330.34;5007125;28;6815;-78
2021/03/14 10:18:37;;;;;;;;;;;;;;;13.00;56.16;100335.50;4999585;28;7279;-78
2021/03/14 10:21:17;;;;;;;;;;;;;;;12.91;55.71;100335.44;5000626;28;7373;-74
2021/03/14 10:23:42;;;;;;;;;;;;;;;12.83;56.30;100344.09;4998259;28;7191;-75
2021/03/14 10:26:08;;;;;;;;;;;;;;;12.79;56.32;100356.19;4995273;28;7484;-78
2021/03/14 10:28:40;;;;;;;;;;;;;;;12.69;56.06;100351.78;5001207;28;8493;-78
2021/03/14 10:31:07;;;;;;;;;;;;;;;12.64;56.38;100364.78;5018818;28;6787;-79
2021/03/14 10:33:39;;;;;;;;;;;;;;;12.46;56.05;100365.47;5000988;28;7142;-78
2021/03/14 10:36:07;;;;;;;;;;;;;;;12.34;56.56;100367.94;4982196;28;7527;-77
2021/03/14 10:38:42;;;;;;;;;;;;;;;12.31;57.15;100369.66;4995902;28;7963;-77
2021/03/14 10:41:23;;;;;;;;;;;;;;;12.35;55.84;100371.44;4992920;28;6808;-77
2021/03/14 10:43:53;;;;;;;;;;;;;;;12.37;56.56;100375.78;4984280;28;7035;-77
2021/03/14 10:46:35;;;;;;;;;;;;;;;12.40;55.99;100381.03;4997591;28;6857;-77
2021/03/14 10:49:05;;;;;;;;;;;;;;;12.43;55.64;100401.03;4990257;28;11147;-77
2021/03/14 10:51:32;;;;;;;;;;;;;;;12.62;55.44;100392.56;5000119;28;7294;-77
2021/03/14 10:54:11;;;;;;;;;;;;;;;12.77;54.83;100403.09;4998920;28;7082;-76
2021/03/14 10:56:45;;;;;;;;;;;;;;;12.86;54.72;100401.44;5004313;28;11163;-75
2021/03/14 10:59:30;;;;;;;;;;;;;;;13.02;54.18;100401.56;4980169;28;7407;-75
2021/03/14 11:02:25;;;;;;;;;;;;;;;13.22;53.70;100400.88;4997889;28;11344;-75
2021/03/14 11:04:59;;;;;;;;;;;;;;;13.27;53.10;100405.25;4993233;28;11193;-74
2021/03/14 11:07:25;;;;;;;;;;;;;;;13.05;53.41;100412.03;5010384;28;11394;-75
2021/03/14 11:09:51;;;;;;;;;;;;;;;12.85;54.21;100412.72;5012019;28;6950;-74
2021/03/14 11:12:32;;;;;;;;;;;;;;;12.84;53.77;100413.59;4994893;28;6871;-75
2021/03/14 11:14:58;;;;;;;;;;;;;;;12.86;54.00;100411.88;4994765;28;11083;-75
2021/03/14 11:17:31;;;;;;;;;;;;;;;12.82;54.09;100408.38;4996446;28;6792;-75
2021/03/14 11:19:56;;;;;;;;;;;;;;;12.88;53.30;100417.97;5009077;28;11432;-75
2021/03/14 11:22:22;;;;;;;;;;;;;;;12.93;53.38;100418.84;4996847;28;7433;-75
2021/03/14 11:24:47;;;;;;;;;;;;;;;12.90;53.54;100413.63;4994380;28;7225;-75
2021/03/14 11:27:13;;;;;;;;;;;;;;;13.07;52.69;100412.91;4995965;28;7284;-75
2021/03/14 11:29:39;;;;;;;;;;;;;;;13.13;52.85;100412.06;4996717;28;6852;-75
2021/03/14 11:32:05;;;;;;;;;;;;;;;13.17;52.77;100413.81;4982087;28;6826;-76
2021/03/14 11:34:31;;;;;;;;;;;;;;;13.26;52.40;100421.78;4988517;28;7521;-78
2021/03/14 11:36:56;;;;;;;;;;;;;;;13.34;52.09;100425.28;5017797;28;6976;-75
2021/03/14 11:39:22;;;;;;;;;;;;;;;13.51;51.71;100425.41;5001684;28;7778;-74
2021/03/14 11:41:48;;;;;;;;;;;;;;;13.68;51.45;100418.56;5007774;28;7183;-74
2021/03/14 11:44:13;;;;;;;;;;;;;;;13.70;50.78;100422.03;5002772;28;6862;-74
2021/03/14 11:46:39;;;;;;;;;;;;;;;13.75;50.78;100418.56;5002528;28;8508;-74
2021/03/14 11:49:05;;;;;;;;;;;;;;;13.75;50.92;100432.50;4995159;28;7779;-74
2021/03/14 11:51:31;;;;;;;;;;;;;;;13.72;50.79;100435.09;4997200;28;6863;-75
2021/03/14 11:53:58;;;;;;;;;;;;;;;13.65;51.40;100439.41;5014573;28;6848;-75
2021/03/14 11:56:24;;;;;;;;;;;;;;;13.74;50.56;100422.91;4998352;28;7115;-74
2021/03/14 11:58:49;;;;;;;;;;;;;;;13.74;50.79;100424.66;4997195;28;7523;-75
2021/03/14 12:01:15;;;;;;;;;;;;;;;13.96;50.17;100429.97;4998995;28;7207;-75
2021/03/14 12:03:40;;;;;;;;;;;;;;;14.05;50.49;100430.91;5013588;28;6921;-76
2021/03/14 12:06:06;;;;;;;;;;;;;;;14.42;50.25;100435.38;4999933;28;6872;-77
2021/03/14 12:08:32;;;;;;;;;;;;;;;14.76;49.74;100420.66;5017717;28;7078;-80
2021/03/14 12:10:57;;;;;;;;;;;;;;;15.02;48.18;100427.66;4996175;28;6813;-81
2021/03/14 12:13:23;;;;;;;;;;;;;;;15.53;47.05;100430.19;4991340;28;8432;-80
2021/03/14 12:15:50;;;;;;;;;;;;;;;15.25;47.11;100425.91;5016309;28;6802;-78
2021/03/14 12:18:15;;;;;;;;;;;;;;;15.12;46.37;100418.91;5006441;28;8898;-77
2021/03/14 12:20:41;;;;;;;;;;;;;;;15.03;46.92;100425.03;5004058;28;7394;-77
2021/03/14 12:23:08;;;;;;;;;;;;;;;15.62;47.57;100428.50;5001497;28;7632;-76
2021/03/14 12:25:34;;;;;;;;;;;;;;;15.88;46.24;100431.91;4984129;28;8808;-74
2021/03/14 12:27:59;;;;;;;;;;;;;;;15.92;45.72;100433.63;4969711;28;7463;-74
2021/03/14 12:30:25;;;;;;;;;;;;;;;15.98;45.60;100433.59;4996863;28;7932;-75
2021/03/14 12:32:50;;;;;;;;;;;;;;;16.13;45.91;100436.16;5015175;28;7130;-78
2021/03/14 12:35:16;;;;;;;;;;;;;;;16.25;45.50;100429.13;5018408;28;7187;-78
2021/03/14 12:37:41;;;;;;;;;;;;;;;15.97;46.63;100425.72;4998894;28;6784;-79
2021/03/14 12:40:08;;;;;;;;;;;;;;;15.66;46.99;100422.38;5002384;28;7110;-78
2021/03/14 12:42:33;;;;;;;;;;;;;;;15.63;47.22;100420.63;5002552;28;7245;-78
2021/03/14 12:44:59;;;;;;;;;;;;;;;15.63;47.52;100418.00;5002968;28;7225;-78
2021/03/14 12:47:24;;;;;;;;;;;;;;;15.48;47.68;100424.13;4967678;28;8152;-78
2021/03/14 12:49:50;;;;;;;;;;;;;;;15.25;48.28;100417.19;4986365;28;8537;-79
2021/03/14 12:52:16;;;;;;;;;;;;;;;15.08;48.62;100431.13;5002883;28;7442;-79
2021/03/14 12:54:41;;;;;;;;;;;;;;;14.99;48.84;100448.56;5002762;28;6939;-78
2021/03/14 12:57:07;;;;;;;;;;;;;;;14.96;49.05;100459.00;5008782;28;8444;-78